sensor_id;sensor_type;location;lat;lon;timestamp;P1;P4;P2;P0;N10;N4;N25;N1;N05;TS
82310;SPS30;72015;51.330;12.316;2023-12-07T00:01:48;18.20;;16.82;;;;;;;
82310;SPS30;72015;51.330;12.316;2023-12-07T00:06:12;15.39;;15.39;;;;;;;
82310;SPS30;72015;51.330;12.316;2023-12-07T00:10:36;15.39;;15.39;;;;;;;
82310;SPS30;72015;51.330;12.316;2023-12-07T00:15:00;15.90;;15.49;;;;;;;
82310;SPS30;72015;51.330;12.316;2023-12-07T00:19:24;15.90;;15.49;;;;;;;
82310;SPS30;72015;51.330;12.316;2023-12-07T00:23:48;16.39;;15.70;;;;;;;
82310;SPS30;72015;51.330;12.316;2023-12-07T00:28:12;16.39;;15.70;;;;;;;
82310;SPS30;72015;51.330;12.316;2023-12-07T00:32:36;16.82;;15.90;;;;;;;
82310;SPS30;72015;51.330;12.316;2023-12-07T00:37:00;16.82;;15.90;;;;;;;
82310;SPS30;72015;51.330;12.316;2023-12-07T00:41:24;16.82;;15.90;;;;;;;
82310;SPS30;72015;51.330;12.316;2023-12-07T00:45:48;17.96;;16.94;;;;;;;
82310;SPS30;72015;51.330;12.316;2023-12-07T00:50:12;17.96;;16.94;;;;;;;
82310;SPS30;72015;51.330;12.316;2023-12-07T00:54:36;15.86;;15.69;;;;;;;
82310;SPS30;72015;51.330;12.316;2023-12-07T00:59:00;15.86;;15.69;;;;;;;
82310;SPS30;72015;51.330;12.316;2023-12-07T01:03:24;17.28;;16.21;;;;;;;
82310;SPS30;72015;51.330;12.316;2023-12-07T01:07:48;17.28;;16.21;;;;;;;
82310;SPS30;72015;51.330;12.316;2023-12-07T01:12:12;17.28;;16.21;;;;;;;
82310;SPS30;72015;51.330;12.316;2023-12-07T01:16:36;17.89;;16.86;;;;;;;
82310;SPS30;72015;51.330;12.316;2023-12-07T01:21:00;17.89;;16.86;;;;;;;
82310;SPS30;72015;51.330;12.316;2023-12-07T01:25:24;21.48;;19.12;;;;;;;
82310;SPS30;72015;51.330;12.316;2023-12-07T01:29:48;21.48;;19.12;;;;;;;
82310;SPS30;72015;51.330;12.316;2023-12-07T01:34:12;20.06;;17.35;;;;;;;
82310;SPS30;72015;51.330;12.316;2023-12-07T01:38:36;20.06;;17.35;;;;;;;
82310;SPS30;72015;51.330;12.316;2023-12-07T01:43:00;19.86;;16.97;;;;;;;
82310;SPS30;72015;51.330;12.316;2023-12-07T01:47:24;19.86;;16.97;;;;;;;
82310;SPS30;72015;51.330;12.316;2023-12-07T01:51:48;19.86;;16.97;;;;;;;
82310;SPS30;72015;51.330;12.316;2023-12-07T01:56:13;16.56;;16.45;;;;;;;
82310;SPS30;72015;51.330;12.316;2023-12-07T02:00:36;16.56;;16.45;;;;;;;
82310;SPS30;72015;51.330;12.316;2023-12-07T02:05:01;18.42;;16.96;;;;;;;
82310;SPS30;72015;51.330;12.316;2023-12-07T02:09:24;18.42;;16.96;;;;;;;
82310;SPS30;72015;51.330;12.316;2023-12-07T02:13:48;19.18;;17.76;;;;;;;
82310;SPS30;72015;51.330;12.316;2023-12-07T02:22:37;21.53;;19.79;;;;;;;
82310;SPS30;72015;51.330;12.316;2023-12-07T02:27:00;21.53;;19.79;;;;;;;
82310;SPS30;72015;51.330;12.316;2023-12-07T02:31:24;21.53;;19.79;;;;;;;
82310;SPS30;72015;51.330;12.316;2023-12-07T02:35:48;22.91;;19.83;;;;;;;
82310;SPS30;72015;51.330;12.316;2023-12-07T02:40:12;22.91;;19.83;;;;;;;
82310;SPS30;72015;51.330;12.316;2023-12-07T02:44:36;22.33;;19.64;;;;;;;
82310;SPS30;72015;51.330;12.316;2023-12-07T02:49:00;22.33;;19.64;;;;;;;
82310;SPS30;72015;51.330;12.316;2023-12-07T02:53:24;24.01;;21.02;;;;;;;
82310;SPS30;72015;51.330;12.316;2023-12-07T02:57:48;24.01;;21.02;;;;;;;
82310;SPS30;72015;51.330;12.316;2023-12-07T03:02:12;24.01;;21.02;;;;;;;
82310;SPS30;72015;51.330;12.316;2023-12-07T03:06:36;24.76;;21.50;;;;;;;
82310;SPS30;72015;51.330;12.316;2023-12-07T03:11:00;24.76;;21.50;;;;;;;
82310;SPS30;72015;51.330;12.316;2023-12-07T03:15:24;24.69;;20.93;;;;;;;
82310;SPS30;72015;51.330;12.316;2023-12-07T03:19:48;24.69;;20.93;;;;;;;
82310;SPS30;72015;51.330;12.316;2023-12-07T03:28:36;20.49;;18.69;;;;;;;
82310;SPS30;72015;51.330;12.316;2023-12-07T03:33:00;25.08;;21.14;;;;;;;
82310;SPS30;72015;51.330;12.316;2023-12-07T03:37:24;25.08;;21.14;;;;;;;
82310;SPS30;72015;51.330;12.316;2023-12-07T03:41:48;25.08;;21.14;;;;;;;
82310;SPS30;72015;51.330;12.316;2023-12-07T03:46:12;23.14;;20.41;;;;;;;
82310;SPS30;72015;51.330;12.316;2023-12-07T03:50:36;23.14;;20.41;;;;;;;
82310;SPS30;72015;51.330;12.316;2023-12-07T03:55:00;21.68;;19.97;;;;;;;
82310;SPS30;72015;51.330;12.316;2023-12-07T03:59:24;21.68;;19.97;;;;;;;
82310;SPS30;72015;51.330;12.316;2023-12-07T04:03:48;21.98;;19.56;;;;;;;
82310;SPS30;72015;51.330;12.316;2023-12-07T04:08:12;21.98;;19.56;;;;;;;
82310;SPS30;72015;51.330;12.316;2023-12-07T04:12:36;24.41;;21.75;;;;;;;
82310;SPS30;72015;51.330;12.316;2023-12-07T04:17:00;24.41;;21.75;;;;;;;
82310;SPS30;72015;51.330;12.316;2023-12-07T04:21:24;24.41;;21.75;;;;;;;
82310;SPS30;72015;51.330;12.316;2023-12-07T04:25:48;18.59;;17.82;;;;;;;
82310;SPS30;72015;51.330;12.316;2023-12-07T04:30:12;18.59;;17.82;;;;;;;
82310;SPS30;72015;51.330;12.316;2023-12-07T04:34:36;21.76;;19.22;;;;;;;
82310;SPS30;72015;51.330;12.316;2023-12-07T04:39:00;21.76;;19.22;;;;;;;
82310;SPS30;72015;51.330;12.316;2023-12-07T04:43:24;20.74;;18.14;;;;;;;
82310;SPS30;72015;51.330;12.316;2023-12-07T04:47:48;20.74;;18.14;;;;;;;
82310;SPS30;72015;51.330;12.316;2023-12-07T04:52:12;20.74;;18.14;;;;;;;
82310;SPS30;72015;51.330;12.316;2023-12-07T04:56:36;23.37;;20.00;;;;;;;
82310;SPS30;72015;51.330;12.316;2023-12-07T05:01:00;23.37;;20.00;;;;;;;
82310;SPS30;72015;51.330;12.316;2023-12-07T05:05:24;20.24;;18.73;;;;;;;
82310;SPS30;72015;51.330;12.316;2023-12-07T05:09:48;20.24;;18.73;;;;;;;
82310;SPS30;72015;51.330;12.316;2023-12-07T05:14:12;18.38;;17.29;;;;;;;
82310;SPS30;72015;51.330;12.316;2023-12-07T05:18:36;18.38;;17.29;;;;;;;
82310;SPS30;72015;51.330;12.316;2023-12-07T05:23:00;22.05;;20.30;;;;;;;
82310;SPS30;72015;51.330;12.316;2023-12-07T05:27:24;22.05;;20.30;;;;;;;
82310;SPS30;72015;51.330;12.316;2023-12-07T05:31:48;22.05;;20.30;;;;;;;
82310;SPS30;72015;51.330;12.316;2023-12-07T05:36:12;21.47;;18.87;;;;;;;
82310;SPS30;72015;51.330;12.316;2023-12-07T05:40:36;21.47;;18.87;;;;;;;
82310;SPS30;72015;51.330;12.316;2023-12-07T05:45:00;19.97;;18.73;;;;;;;
82310;SPS30;72015;51.330;12.316;2023-12-07T05:49:24;19.97;;18.73;;;;;;;
82310;SPS30;72015;51.330;12.316;2023-12-07T05:53:48;28.99;;23.64;;;;;;;
82310;SPS30;72015;51.330;12.316;2023-12-07T05:58:13;28.99;;23.64;;;;;;;
82310;SPS30;72015;51.330;12.316;2023-12-07T06:02:36;35.93;;27.80;;;;;;;
82310;SPS30;72015;51.330;12.316;2023-12-07T06:07:00;35.93;;27.80;;;;;;;
82310;SPS30;72015;51.330;12.316;2023-12-07T06:11:24;35.93;;27.80;;;;;;;
82310;SPS30;72015;51.330;12.316;2023-12-07T06:15:48;26.32;;22.22;;;;;;;
82310;SPS30;72015;51.330;12.316;2023-12-07T06:20:12;26.32;;22.22;;;;;;;
82310;SPS30;72015;51.330;12.316;2023-12-07T06:24:36;24.11;;20.74;;;;;;;
82310;SPS30;72015;51.330;12.316;2023-12-07T06:29:00;24.11;;20.74;;;;;;;
82310;SPS30;72015;51.330;12.316;2023-12-07T06:33:24;25.81;;22.33;;;;;;;
82310;SPS30;72015;51.330;12.316;2023-12-07T06:37:48;25.81;;22.33;;;;;;;
82310;SPS30;72015;51.330;12.316;2023-12-07T06:42:12;25.81;;22.33;;;;;;;
82310;SPS30;72015;51.330;12.316;2023-12-07T06:46:36;27.94;;22.90;;;;;;;
82310;SPS30;72015;51.330;12.316;2023-12-07T06:51:00;27.94;;22.90;;;;;;;
82310;SPS30;72015;51.330;12.316;2023-12-07T06:55:24;24.51;;21.47;;;;;;;
82310;SPS30;72015;51.330;12.316;2023-12-07T06:59:48;24.51;;21.47;;;;;;;
82310;SPS30;72015;51.330;12.316;2023-12-07T07:04:12;23.87;;20.34;;;;;;;
82310;SPS30;72015;51.330;12.316;2023-12-07T07:08:36;23.87;;20.34;;;;;;;
82310;SPS30;72015;51.330;12.316;2023-12-07T07:13:01;24.06;;20.53;;;;;;;
82310;SPS30;72015;51.330;12.316;2023-12-07T07:17:24;24.06;;20.53;;;;;;;
82310;SPS30;72015;51.330;12.316;2023-12-07T07:21:48;24.06;;20.53;;;;;;;
82310;SPS30;72015;51.330;12.316;2023-12-07T07:26:12;24.88;;21.38;;;;;;;
82310;SPS30;72015;51.330;12.316;2023-12-07T07:30:36;24.88;;21.38;;;;;;;
82310;SPS30;72015;51.330;12.316;2023-12-07T07:35:00;22.51;;19.59;;;;;;;
82310;SPS30;72015;51.330;12.316;2023-12-07T07:39:24;22.51;;19.59;;;;;;;
82310;SPS30;72015;51.330;12.316;2023-12-07T07:43:48;31.15;;24.76;;;;;;;
82310;SPS30;72015;51.330;12.316;2023-12-07T07:48:12;31.15;;24.76;;;;;;;
82310;SPS30;72015;51.330;12.316;2023-12-07T07:52:36;41.19;;30.98;;;;;;;
82310;SPS30;72015;51.330;12.316;2023-12-07T07:57:00;41.19;;30.98;;;;;;;
82310;SPS30;72015;51.330;12.316;2023-12-07T08:01:24;41.19;;30.98;;;;;;;
82310;SPS30;72015;51.330;12.316;2023-12-07T08:05:48;20.45;;18.72;;;;;;;
82310;SPS30;72015;51.330;12.316;2023-12-07T08:10:12;20.45;;18.72;;;;;;;
82310;SPS30;72015;51.330;12.316;2023-12-07T08:14:36;21.62;;19.18;;;;;;;
82310;SPS30;72015;51.330;12.316;2023-12-07T08:19:00;21.62;;19.18;;;;;;;
82310;SPS30;72015;51.330;12.316;2023-12-07T08:23:24;21.85;;19.42;;;;;;;
82310;SPS30;72015;51.330;12.316;2023-12-07T08:27:48;21.85;;19.42;;;;;;;
82310;SPS30;72015;51.330;12.316;2023-12-07T08:32:12;21.85;;19.42;;;;;;;
82310;SPS30;72015;51.330;12.316;2023-12-07T08:36:36;28.67;;23.29;;;;;;;
82310;SPS30;72015;51.330;12.316;2023-12-07T08:41:00;28.67;;23.29;;;;;;;
82310;SPS30;72015;51.330;12.316;2023-12-07T08:45:24;21.37;;19.86;;;;;;;
82310;SPS30;72015;51.330;12.316;2023-12-07T08:49:48;21.37;;19.86;;;;;;;
82310;SPS30;72015;51.330;12.316;2023-12-07T08:54:12;21.75;;19.38;;;;;;;
82310;SPS30;72015;51.330;12.316;2023-12-07T08:58:36;21.75;;19.38;;;;;;;
82310;SPS30;72015;51.330;12.316;2023-12-07T09:03:00;19.62;;18.28;;;;;;;
82310;SPS30;72015;51.330;12.316;2023-12-07T09:07:24;19.62;;18.28;;;;;;;
82310;SPS30;72015;51.330;12.316;2023-12-07T09:11:48;19.62;;18.28;;;;;;;
82310;SPS30;72015;51.330;12.316;2023-12-07T09:16:12;19.38;;18.35;;;;;;;
82310;SPS30;72015;51.330;12.316;2023-12-07T09:20:37;19.38;;18.35;;;;;;;
82310;SPS30;72015;51.330;12.316;2023-12-07T09:25:00;20.30;;19.14;;;;;;;
82310;SPS30;72015;51.330;12.316;2023-12-07T09:29:25;20.30;;19.14;;;;;;;
82310;SPS30;72015;51.330;12.316;2023-12-07T09:33:49;20.06;;18.68;;;;;;;
82310;SPS30;72015;51.330;12.316;2023-12-07T09:38:13;20.06;;18.68;;;;;;;
82310;SPS30;72015;51.330;12.316;2023-12-07T09:42:37;28.17;;23.17;;;;;;;
82310;SPS30;72015;51.330;12.316;2023-12-07T09:47:01;28.17;;23.17;;;;;;;
82310;SPS30;72015;51.330;12.316;2023-12-07T09:51:25;28.17;;23.17;;;;;;;
82310;SPS30;72015;51.330;12.316;2023-12-07T09:55:49;24.91;;22.18;;;;;;;
82310;SPS30;72015;51.330;12.316;2023-12-07T10:00:13;24.91;;22.18;;;;;;;
82310;SPS30;72015;51.330;12.316;2023-12-07T10:04:37;46.15;;37.47;;;;;;;
82310;SPS30;72015;51.330;12.316;2023-12-07T10:09:03;46.15;;37.47;;;;;;;
82310;SPS30;72015;51.330;12.316;2023-12-07T10:13:25;26.28;;22.35;;;;;;;
82310;SPS30;72015;51.330;12.316;2023-12-07T10:22:13;26.28;;22.35;;;;;;;
82310;SPS30;72015;51.330;12.316;2023-12-07T10:26:37;25.43;;21.82;;;;;;;
82310;SPS30;72015;51.330;12.316;2023-12-07T10:31:01;25.43;;21.82;;;;;;;
82310;SPS30;72015;51.330;12.316;2023-12-07T10:35:25;20.77;;19.52;;;;;;;
82310;SPS30;72015;51.330;12.316;2023-12-07T10:39:49;20.77;;19.52;;;;;;;
82310;SPS30;72015;51.330;12.316;2023-12-07T10:44:13;19.89;;18.90;;;;;;;
82310;SPS30;72015;51.330;12.316;2023-12-07T10:48:37;19.89;;18.90;;;;;;;
82310;SPS30;72015;51.330;12.316;2023-12-07T10:53:04;29.17;;27.51;;;;;;;
82310;SPS30;72015;51.330;12.316;2023-12-07T10:57:25;29.17;;27.51;;;;;;;
82310;SPS30;72015;51.330;12.316;2023-12-07T11:01:49;29.17;;27.51;;;;;;;
82310;SPS30;72015;51.330;12.316;2023-12-07T11:06:13;20.76;;19.96;;;;;;;
82310;SPS30;72015;51.330;12.316;2023-12-07T11:15:01;26.91;;22.66;;;;;;;
82310;SPS30;72015;51.330;12.316;2023-12-07T11:23:49;20.83;;19.97;;;;;;;
82310;SPS30;72015;51.330;12.316;2023-12-07T11:28:13;20.83;;19.97;;;;;;;
82310;SPS30;72015;51.330;12.316;2023-12-07T11:32:37;21.59;;20.66;;;;;;;
82310;SPS30;72015;51.330;12.316;2023-12-07T11:37:03;21.59;;20.66;;;;;;;
82310;SPS30;72015;51.330;12.316;2023-12-07T11:41:28;21.59;;20.66;;;;;;;
82310;SPS30;72015;51.330;12.316;2023-12-07T11:45:49;24.72;;23.51;;;;;;;
82310;SPS30;72015;51.330;12.316;2023-12-07T11:50:13;24.72;;23.51;;;;;;;
82310;SPS30;72015;51.330;12.316;2023-12-07T11:54:37;32.41;;27.01;;;;;;;
82310;SPS30;72015;51.330;12.316;2023-12-07T11:59:01;32.41;;27.01;;;;;;;
82310;SPS30;72015;51.330;12.316;2023-12-07T12:03:25;25.94;;22.23;;;;;;;
82310;SPS30;72015;51.330;12.316;2023-12-07T12:07:49;25.94;;22.23;;;;;;;
82310;SPS30;72015;51.330;12.316;2023-12-07T12:12:13;25.94;;22.23;;;;;;;
82310;SPS30;72015;51.330;12.316;2023-12-07T12:16:37;24.48;;21.78;;;;;;;
82310;SPS30;72015;51.330;12.316;2023-12-07T12:21:01;24.48;;21.78;;;;;;;
82310;SPS30;72015;51.330;12.316;2023-12-07T12:25:25;25.78;;22.18;;;;;;;
82310;SPS30;72015;51.330;12.316;2023-12-07T12:29:49;25.78;;22.18;;;;;;;
82310;SPS30;72015;51.330;12.316;2023-12-07T12:34:13;44.68;;37.13;;;;;;;
82310;SPS30;72015;51.330;12.316;2023-12-07T12:38:37;44.68;;37.13;;;;;;;
82310;SPS30;72015;51.330;12.316;2023-12-07T12:43:01;21.88;;20.28;;;;;;;
82310;SPS30;72015;51.330;12.316;2023-12-07T12:47:25;21.88;;20.28;;;;;;;
82310;SPS30;72015;51.330;12.316;2023-12-07T12:51:49;21.88;;20.28;;;;;;;
82310;SPS30;72015;51.330;12.316;2023-12-07T12:56:14;26.64;;22.63;;;;;;;
82310;SPS30;72015;51.330;12.316;2023-12-07T13:00:38;26.64;;22.63;;;;;;;
82310;SPS30;72015;51.330;12.316;2023-12-07T13:05:01;22.82;;20.20;;;;;;;
82310;SPS30;72015;51.330;12.316;2023-12-07T13:09:25;22.82;;20.20;;;;;;;
82310;SPS30;72015;51.330;12.316;2023-12-07T13:13:49;18.32;;17.33;;;;;;;
82310;SPS30;72015;51.330;12.316;2023-12-07T13:18:13;18.32;;17.33;;;;;;;
82310;SPS30;72015;51.330;12.316;2023-12-07T13:22:37;19.97;;18.48;;;;;;;
82310;SPS30;72015;51.330;12.316;2023-12-07T13:27:01;19.97;;18.48;;;;;;;
82310;SPS30;72015;51.330;12.316;2023-12-07T13:31:25;19.97;;18.48;;;;;;;
82310;SPS30;72015;51.330;12.316;2023-12-07T13:35:49;17.80;;16.44;;;;;;;
82310;SPS30;72015;51.330;12.316;2023-12-07T13:40:13;17.80;;16.44;;;;;;;
82310;SPS30;72015;51.330;12.316;2023-12-07T13:44:37;23.49;;19.87;;;;;;;
82310;SPS30;72015;51.330;12.316;2023-12-07T13:49:01;23.49;;19.87;;;;;;;
82310;SPS30;72015;51.330;12.316;2023-12-07T13:53:25;23.15;;19.13;;;;;;;
82310;SPS30;72015;51.330;12.316;2023-12-07T13:57:49;23.15;;19.13;;;;;;;
82310;SPS30;72015;51.330;12.316;2023-12-07T14:02:13;20.98;;18.41;;;;;;;
82310;SPS30;72015;51.330;12.316;2023-12-07T14:06:37;20.98;;18.41;;;;;;;
82310;SPS30;72015;51.330;12.316;2023-12-07T14:11:01;20.98;;18.41;;;;;;;
82310;SPS30;72015;51.330;12.316;2023-12-07T14:15:25;19.10;;17.27;;;;;;;
82310;SPS30;72015;51.330;12.316;2023-12-07T14:19:49;19.10;;17.27;;;;;;;
82310;SPS30;72015;51.330;12.316;2023-12-07T14:24:13;14.76;;14.32;;;;;;;
82310;SPS30;72015;51.330;12.316;2023-12-07T14:28:37;14.76;;14.32;;;;;;;
82310;SPS30;72015;51.330;12.316;2023-12-07T14:33:01;19.85;;17.12;;;;;;;
82310;SPS30;72015;51.330;12.316;2023-12-07T14:37:25;19.85;;17.12;;;;;;;
82310;SPS30;72015;51.330;12.316;2023-12-07T14:41:49;19.85;;17.12;;;;;;;
82310;SPS30;72015;51.330;12.316;2023-12-07T14:46:13;18.35;;16.08;;;;;;;
82310;SPS30;72015;51.330;12.316;2023-12-07T14:50:37;18.35;;16.08;;;;;;;
82310;SPS30;72015;51.330;12.316;2023-12-07T14:55:01;18.55;;18.54;;;;;;;
82310;SPS30;72015;51.330;12.316;2023-12-07T14:59:25;18.55;;18.54;;;;;;;
82310;SPS30;72015;51.330;12.316;2023-12-07T15:03:49;17.52;;15.24;;;;;;;
82310;SPS30;72015;51.330;12.316;2023-12-07T15:08:21;17.52;;15.24;;;;;;;
82310;SPS30;72015;51.330;12.316;2023-12-07T15:12:37;14.87;;13.81;;;;;;;
82310;SPS30;72015;51.330;12.316;2023-12-07T15:17:01;14.87;;13.81;;;;;;;
82310;SPS30;72015;51.330;12.316;2023-12-07T15:21:25;14.87;;13.81;;;;;;;
82310;SPS30;72015;51.330;12.316;2023-12-07T15:25:49;16.02;;14.73;;;;;;;
82310;SPS30;72015;51.330;12.316;2023-12-07T15:30:13;16.02;;14.73;;;;;;;
82310;SPS30;72015;51.330;12.316;2023-12-07T15:34:37;15.08;;13.69;;;;;;;
82310;SPS30;72015;51.330;12.316;2023-12-07T15:39:01;15.08;;13.69;;;;;;;
82310;SPS30;72015;51.330;12.316;2023-12-07T15:43:25;14.30;;13.76;;;;;;;
82310;SPS30;72015;51.330;12.316;2023-12-07T15:47:49;14.30;;13.76;;;;;;;
82310;SPS30;72015;51.330;12.316;2023-12-07T15:52:13;15.99;;15.19;;;;;;;
82310;SPS30;72015;51.330;12.316;2023-12-07T15:56:40;15.99;;15.19;;;;;;;
82310;SPS30;72015;51.330;12.316;2023-12-07T16:01:01;15.99;;15.19;;;;;;;
82310;SPS30;72015;51.330;12.316;2023-12-07T16:05:25;27.77;;26.28;;;;;;;
82310;SPS30;72015;51.330;12.316;2023-12-07T16:09:49;27.77;;26.28;;;;;;;
82310;SPS30;72015;51.330;12.316;2023-12-07T16:14:13;20.91;;19.83;;;;;;;
82310;SPS30;72015;51.330;12.316;2023-12-07T16:18:37;20.91;;19.83;;;;;;;
82310;SPS30;72015;51.330;12.316;2023-12-07T16:23:01;17.58;;16.87;;;;;;;
82310;SPS30;72015;51.330;12.316;2023-12-07T16:27:25;17.58;;16.87;;;;;;;
82310;SPS30;72015;51.330;12.316;2023-12-07T16:31:49;17.58;;16.87;;;;;;;
82310;SPS30;72015;51.330;12.316;2023-12-07T16:36:16;19.30;;18.17;;;;;;;
82310;SPS30;72015;51.330;12.316;2023-12-07T16:40:37;19.30;;18.17;;;;;;;
82310;SPS30;72015;51.330;12.316;2023-12-07T16:45:01;21.77;;19.22;;;;;;;
82310;SPS30;72015;51.330;12.316;2023-12-07T16:49:25;21.77;;19.22;;;;;;;
82310;SPS30;72015;51.330;12.316;2023-12-07T16:53:49;18.44;;16.82;;;;;;;
82310;SPS30;72015;51.330;12.316;2023-12-07T16:58:13;18.44;;16.82;;;;;;;
82310;SPS30;72015;51.330;12.316;2023-12-07T17:02:37;17.96;;16.98;;;;;;;
82310;SPS30;72015;51.330;12.316;2023-12-07T17:07:01;17.96;;16.98;;;;;;;
82310;SPS30;72015;51.330;12.316;2023-12-07T17:11:25;17.96;;16.98;;;;;;;
82310;SPS30;72015;51.330;12.316;2023-12-07T17:15:49;22.20;;19.12;;;;;;;
82310;SPS30;72015;51.330;12.316;2023-12-07T17:20:13;22.20;;19.12;;;;;;;
82310;SPS30;72015;51.330;12.316;2023-12-07T17:24:37;23.71;;20.58;;;;;;;
82310;SPS30;72015;51.330;12.316;2023-12-07T17:29:01;23.71;;20.58;;;;;;;
82310;SPS30;72015;51.330;12.316;2023-12-07T17:33:25;15.42;;14.95;;;;;;;
82310;SPS30;72015;51.330;12.316;2023-12-07T17:37:49;15.42;;14.95;;;;;;;
82310;SPS30;72015;51.330;12.316;2023-12-07T17:42:13;17.07;;15.64;;;;;;;
82310;SPS30;72015;51.330;12.316;2023-12-07T17:46:37;17.07;;15.64;;;;;;;
82310;SPS30;72015;51.330;12.316;2023-12-07T17:51:01;17.07;;15.64;;;;;;;
82310;SPS30;72015;51.330;12.316;2023-12-07T17:55:25;16.81;;16.14;;;;;;;
82310;SPS30;72015;51.330;12.316;2023-12-07T17:59:49;16.81;;16.14;;;;;;;
82310;SPS30;72015;51.330;12.316;2023-12-07T18:04:13;21.60;;19.24;;;;;;;
82310;SPS30;72015;51.330;12.316;2023-12-07T18:08:37;21.60;;19.24;;;;;;;
82310;SPS30;72015;51.330;12.316;2023-12-07T18:13:01;21.69;;20.21;;;;;;;
82310;SPS30;72015;51.330;12.316;2023-12-07T18:17:25;21.69;;20.21;;;;;;;
82310;SPS30;72015;51.330;12.316;2023-12-07T18:21:49;21.69;;20.21;;;;;;;
82310;SPS30;72015;51.330;12.316;2023-12-07T18:26:13;18.73;;17.25;;;;;;;
82310;SPS30;72015;51.330;12.316;2023-12-07T18:30:37;18.73;;17.25;;;;;;;
82310;SPS30;72015;51.330;12.316;2023-12-07T18:35:01;20.57;;19.02;;;;;;;
82310;SPS30;72015;51.330;12.316;2023-12-07T18:39:25;20.57;;19.02;;;;;;;
82310;SPS30;72015;51.330;12.316;2023-12-07T18:43:49;20.63;;19.23;;;;;;;
82310;SPS30;72015;51.330;12.316;2023-12-07T18:48:13;20.63;;19.23;;;;;;;
82310;SPS30;72015;51.330;12.316;2023-12-07T18:52:37;18.95;;17.22;;;;;;;
82310;SPS30;72015;51.330;12.316;2023-12-07T18:57:01;18.95;;17.22;;;;;;;
82310;SPS30;72015;51.330;12.316;2023-12-07T19:01:29;18.95;;17.22;;;;;;;
82310;SPS30;72015;51.330;12.316;2023-12-07T19:05:49;13.46;;13.30;;;;;;;
82310;SPS30;72015;51.330;12.316;2023-12-07T19:10:13;13.46;;13.30;;;;;;;
82310;SPS30;72015;51.330;12.316;2023-12-07T19:14:37;13.94;;13.63;;;;;;;
82310;SPS30;72015;51.330;12.316;2023-12-07T19:19:01;13.94;;13.63;;;;;;;
82310;SPS30;72015;51.330;12.316;2023-12-07T19:23:25;13.38;;13.25;;;;;;;
82310;SPS30;72015;51.330;12.316;2023-12-07T19:27:49;13.38;;13.25;;;;;;;
82310;SPS30;72015;51.330;12.316;2023-12-07T19:32:13;19.43;;16.64;;;;;;;
82310;SPS30;72015;51.330;12.316;2023-12-07T19:36:40;19.43;;16.64;;;;;;;
82310;SPS30;72015;51.330;12.316;2023-12-07T19:41:01;19.43;;16.64;;;;;;;
82310;SPS30;72015;51.330;12.316;2023-12-07T19:45:25;14.93;;14.79;;;;;;;
82310;SPS30;72015;51.330;12.316;2023-12-07T19:49:49;14.93;;14.79;;;;;;;
82310;SPS30;72015;51.330;12.316;2023-12-07T19:54:13;17.76;;16.04;;;;;;;
82310;SPS30;72015;51.330;12.316;2023-12-07T19:58:37;17.76;;16.04;;;;;;;
82310;SPS30;72015;51.330;12.316;2023-12-07T20:03:01;17.06;;16.29;;;;;;;
82310;SPS30;72015;51.330;12.316;2023-12-07T20:07:25;17.06;;16.29;;;;;;;
82310;SPS30;72015;51.330;12.316;2023-12-07T20:11:49;17.06;;16.29;;;;;;;
82310;SPS30;72015;51.330;12.316;2023-12-07T20:16:16;29.03;;24.50;;;;;;;
82310;SPS30;72015;51.330;12.316;2023-12-07T20:20:37;29.03;;24.50;;;;;;;
82310;SPS30;72015;51.330;12.316;2023-12-07T20:25:01;20.95;;19.65;;;;;;;
82310;SPS30;72015;51.330;12.316;2023-12-07T20:29:25;20.95;;19.65;;;;;;;
82310;SPS30;72015;51.330;12.316;2023-12-07T20:33:49;23.35;;20.68;;;;;;;
82310;SPS30;72015;51.330;12.316;2023-12-07T20:38:13;23.35;;20.68;;;;;;;
82310;SPS30;72015;51.330;12.316;2023-12-07T20:42:37;17.09;;16.81;;;;;;;
82310;SPS30;72015;51.330;12.316;2023-12-07T20:47:01;17.09;;16.81;;;;;;;
82310;SPS30;72015;51.330;12.316;2023-12-07T20:51:25;17.09;;16.81;;;;;;;
82310;SPS30;72015;51.330;12.316;2023-12-07T20:55:49;18.91;;17.49;;;;;;;
82310;SPS30;72015;51.330;12.316;2023-12-07T21:00:13;18.91;;17.49;;;;;;;
82310;SPS30;72015;51.330;12.316;2023-12-07T21:04:37;25.58;;23.77;;;;;;;
82310;SPS30;72015;51.330;12.316;2023-12-07T21:09:01;25.58;;23.77;;;;;;;
82310;SPS30;72015;51.330;12.316;2023-12-07T21:13:25;20.83;;19.64;;;;;;;
82310;SPS30;72015;51.330;12.316;2023-12-07T21:17:49;20.83;;19.64;;;;;;;
82310;SPS30;72015;51.330;12.316;2023-12-07T21:22:13;24.78;;23.30;;;;;;;
82310;SPS30;72015;51.330;12.316;2023-12-07T21:26:37;24.78;;23.30;;;;;;;
82310;SPS30;72015;51.330;12.316;2023-12-07T21:31:01;24.78;;23.30;;;;;;;
82310;SPS30;72015;51.330;12.316;2023-12-07T21:35:25;28.39;;25.33;;;;;;;
82310;SPS30;72015;51.330;12.316;2023-12-07T21:39:49;28.39;;25.33;;;;;;;
82310;SPS30;72015;51.330;12.316;2023-12-07T21:44:13;27.12;;24.74;;;;;;;
82310;SPS30;72015;51.330;12.316;2023-12-07T21:48:37;27.12;;24.74;;;;;;;
82310;SPS30;72015;51.330;12.316;2023-12-07T21:53:01;23.52;;22.47;;;;;;;
82310;SPS30;72015;51.330;12.316;2023-12-07T21:57:25;23.52;;22.47;;;;;;;
82310;SPS30;72015;51.330;12.316;2023-12-07T22:01:49;23.52;;22.47;;;;;;;
82310;SPS30;72015;51.330;12.316;2023-12-07T22:06:13;23.31;;23.04;;;;;;;
82310;SPS30;72015;51.330;12.316;2023-12-07T22:10:37;23.31;;23.04;;;;;;;
82310;SPS30;72015;51.330;12.316;2023-12-07T22:15:01;29.77;;26.86;;;;;;;
82310;SPS30;72015;51.330;12.316;2023-12-07T22:19:25;29.77;;26.86;;;;;;;
82310;SPS30;72015;51.330;12.316;2023-12-07T22:23:49;24.62;;22.29;;;;;;;
82310;SPS30;72015;51.330;12.316;2023-12-07T22:28:13;24.62;;22.29;;;;;;;
82310;SPS30;72015;51.330;12.316;2023-12-07T22:32:37;27.60;;25.09;;;;;;;
82310;SPS30;72015;51.330;12.316;2023-12-07T22:37:01;27.60;;25.09;;;;;;;
82310;SPS30;72015;51.330;12.316;2023-12-07T22:41:25;27.60;;25.09;;;;;;;
82310;SPS30;72015;51.330;12.316;2023-12-07T22:45:49;19.24;;19.19;;;;;;;
82310;SPS30;72015;51.330;12.316;2023-12-07T22:50:13;19.24;;19.19;;;;;;;
82310;SPS30;72015;51.330;12.316;2023-12-07T22:54:37;29.37;;25.04;;;;;;;
82310;SPS30;72015;51.330;12.316;2023-12-07T22:59:01;29.37;;25.04;;;;;;;
82310;SPS30;72015;51.330;12.316;2023-12-07T23:03:25;24.18;;21.78;;;;;;;
82310;SPS30;72015;51.330;12.316;2023-12-07T23:07:49;24.18;;21.78;;;;;;;
82310;SPS30;72015;51.330;12.316;2023-12-07T23:12:13;26.46;;24.24;;;;;;;
82310;SPS30;72015;51.330;12.316;2023-12-07T23:16:37;26.46;;24.24;;;;;;;
82310;SPS30;72015;51.330;12.316;2023-12-07T23:21:01;26.46;;24.24;;;;;;;
82310;SPS30;72015;51.330;12.316;2023-12-07T23:25:25;23.54;;22.33;;;;;;;
82310;SPS30;72015;51.330;12.316;2023-12-07T23:29:49;23.54;;22.33;;;;;;;
82310;SPS30;72015;51.330;12.316;2023-12-07T23:34:13;27.74;;23.95;;;;;;;
82310;SPS30;72015;51.330;12.316;2023-12-07T23:38:37;27.74;;23.95;;;;;;;
82310;SPS30;72015;51.330;12.316;2023-12-07T23:43:01;23.23;;21.48;;;;;;;
82310;SPS30;72015;51.330;12.316;2023-12-07T23:47:25;23.23;;21.48;;;;;;;
82310;SPS30;72015;51.330;12.316;2023-12-07T23:51:49;23.23;;21.48;;;;;;;
